sensor_id;sensor_type;location;lat;lon;timestamp;P1;durP1;ratioP1;P2;durP2;ratioP2
10389;SDS011;5241;47.830;12.972;2024-02-28T00:00:54;21.60;;;11.67;;
10389;SDS011;5241;47.830;12.972;2024-02-28T00:03:20;18.77;;;11.40;;
10389;SDS011;5241;47.830;12.972;2024-02-28T00:05:46;23.37;;;11.33;;
10389;SDS011;5241;47.830;12.972;2024-02-28T00:08:13;21.87;;;12.23;;
10389;SDS011;5241;47.830;12.972;2024-02-28T00:10:38;16.53;;;10.33;;
10389;SDS011;5241;47.830;12.972;2024-02-28T00:13:04;20.47;;;11.57;;
10389;SDS011;5241;47.830;12.972;2024-02-28T00:15:29;25.90;;;13.80;;
10389;SDS011;5241;47.830;12.972;2024-02-28T00:17:55;19.50;;;11.50;;
10389;SDS011;5241;47.830;12.972;2024-02-28T00:20:20;20.93;;;11.27;;
10389;SDS011;5241;47.830;12.972;2024-02-28T00:22:46;20.20;;;12.23;;
10389;SDS011;5241;47.830;12.972;2024-02-28T00:25:11;18.00;;;10.73;;
10389;SDS011;5241;47.830;12.972;2024-02-28T00:27:38;17.40;;;10.03;;
10389;SDS011;5241;47.830;12.972;2024-02-28T00:30:04;25.30;;;12.87;;
10389;SDS011;5241;47.830;12.972;2024-02-28T00:32:31;20.43;;;11.10;;
10389;SDS011;5241;47.830;12.972;2024-02-28T00:34:57;27.37;;;12.37;;
10389;SDS011;5241;47.830;12.972;2024-02-28T00:37:22;18.27;;;10.30;;
10389;SDS011;5241;47.830;12.972;2024-02-28T00:39:49;21.70;;;11.47;;
10389;SDS011;5241;47.830;12.972;2024-02-28T00:42:15;20.57;;;11.43;;
10389;SDS011;5241;47.830;12.972;2024-02-28T00:44:40;17.13;;;11.40;;
10389;SDS011;5241;47.830;12.972;2024-02-28T00:47:07;17.73;;;11.27;;
10389;SDS011;5241;47.830;12.972;2024-02-28T00:49:33;20.37;;;12.30;;
10389;SDS011;5241;47.830;12.972;2024-02-28T00:52:00;22.87;;;11.90;;
10389;SDS011;5241;47.830;12.972;2024-02-28T00:54:25;21.17;;;11.57;;
10389;SDS011;5241;47.830;12.972;2024-02-28T00:56:51;19.83;;;10.67;;
10389;SDS011;5241;47.830;12.972;2024-02-28T00:59:16;21.13;;;12.27;;
10389;SDS011;5241;47.830;12.972;2024-02-28T01:01:42;23.27;;;12.07;;
10389;SDS011;5241;47.830;12.972;2024-02-28T01:04:07;22.83;;;12.10;;
10389;SDS011;5241;47.830;12.972;2024-02-28T01:06:33;22.03;;;11.87;;
10389;SDS011;5241;47.830;12.972;2024-02-28T01:08:59;21.83;;;10.90;;
10389;SDS011;5241;47.830;12.972;2024-02-28T01:11:24;17.53;;;11.43;;
10389;SDS011;5241;47.830;12.972;2024-02-28T01:13:50;21.33;;;11.20;;
10389;SDS011;5241;47.830;12.972;2024-02-28T01:16:15;19.97;;;10.73;;
10389;SDS011;5241;47.830;12.972;2024-02-28T01:18:41;21.43;;;11.63;;
10389;SDS011;5241;47.830;12.972;2024-02-28T01:21:07;30.40;;;12.57;;
10389;SDS011;5241;47.830;12.972;2024-02-28T01:23:32;20.23;;;11.03;;
10389;SDS011;5241;47.830;12.972;2024-02-28T01:25:58;19.73;;;10.80;;
10389;SDS011;5241;47.830;12.972;2024-02-28T01:28:24;22.67;;;12.23;;
10389;SDS011;5241;47.830;12.972;2024-02-28T01:30:49;19.10;;;10.83;;
10389;SDS011;5241;47.830;12.972;2024-02-28T01:33:15;27.23;;;12.17;;
10389;SDS011;5241;47.830;12.972;2024-02-28T01:35:40;19.10;;;11.83;;
10389;SDS011;5241;47.830;12.972;2024-02-28T01:38:06;23.57;;;11.40;;
10389;SDS011;5241;47.830;12.972;2024-02-28T01:40:31;22.03;;;11.10;;
10389;SDS011;5241;47.830;12.972;2024-02-28T01:43:03;20.13;;;11.07;;
10389;SDS011;5241;47.830;12.972;2024-02-28T01:45:31;17.10;;;10.83;;
10389;SDS011;5241;47.830;12.972;2024-02-28T01:47:57;17.67;;;10.10;;
10389;SDS011;5241;47.830;12.972;2024-02-28T01:50:23;22.13;;;10.47;;
10389;SDS011;5241;47.830;12.972;2024-02-28T01:52:48;20.77;;;10.90;;
10389;SDS011;5241;47.830;12.972;2024-02-28T01:55:14;20.47;;;10.53;;
10389;SDS011;5241;47.830;12.972;2024-02-28T01:57:40;18.70;;;11.10;;
10389;SDS011;5241;47.830;12.972;2024-02-28T02:00:06;18.03;;;9.60;;
10389;SDS011;5241;47.830;12.972;2024-02-28T02:02:33;20.17;;;11.87;;
10389;SDS011;5241;47.830;12.972;2024-02-28T02:04:59;19.60;;;10.77;;
10389;SDS011;5241;47.830;12.972;2024-02-28T02:07:25;19.17;;;10.37;;
10389;SDS011;5241;47.830;12.972;2024-02-28T02:09:51;15.60;;;9.40;;
10389;SDS011;5241;47.830;12.972;2024-02-28T02:12:17;17.17;;;10.43;;
10389;SDS011;5241;47.830;12.972;2024-02-28T02:14:47;16.77;;;9.17;;
10389;SDS011;5241;47.830;12.972;2024-02-28T02:17:15;17.57;;;9.23;;
10389;SDS011;5241;47.830;12.972;2024-02-28T02:19:41;17.57;;;9.53;;
10389;SDS011;5241;47.830;12.972;2024-02-28T02:22:08;22.30;;;10.67;;
10389;SDS011;5241;47.830;12.972;2024-02-28T02:24:34;17.47;;;9.40;;
10389;SDS011;5241;47.830;12.972;2024-02-28T02:27:00;17.10;;;9.80;;
10389;SDS011;5241;47.830;12.972;2024-02-28T02:29:27;16.40;;;10.13;;
10389;SDS011;5241;47.830;12.972;2024-02-28T02:31:53;16.77;;;9.10;;
10389;SDS011;5241;47.830;12.972;2024-02-28T02:34:19;21.67;;;10.20;;
10389;SDS011;5241;47.830;12.972;2024-02-28T02:36:44;22.60;;;10.67;;
10389;SDS011;5241;47.830;12.972;2024-02-28T02:39:10;20.23;;;11.40;;
10389;SDS011;5241;47.830;12.972;2024-02-28T02:41:35;16.20;;;10.03;;
10389;SDS011;5241;47.830;12.972;2024-02-28T02:44:01;17.43;;;10.77;;
10389;SDS011;5241;47.830;12.972;2024-02-28T02:46:26;17.73;;;10.13;;
10389;SDS011;5241;47.830;12.972;2024-02-28T02:48:52;17.63;;;10.83;;
10389;SDS011;5241;47.830;12.972;2024-02-28T02:51:18;17.30;;;10.07;;
10389;SDS011;5241;47.830;12.972;2024-02-28T02:53:44;18.70;;;8.93;;
10389;SDS011;5241;47.830;12.972;2024-02-28T02:56:10;16.57;;;9.57;;
10389;SDS011;5241;47.830;12.972;2024-02-28T02:58:35;22.83;;;11.47;;
10389;SDS011;5241;47.830;12.972;2024-02-28T03:01:01;18.60;;;11.13;;
10389;SDS011;5241;47.830;12.972;2024-02-28T03:03:27;19.73;;;11.33;;
10389;SDS011;5241;47.830;12.972;2024-02-28T03:05:52;22.63;;;11.37;;
10389;SDS011;5241;47.830;12.972;2024-02-28T03:08:18;18.23;;;11.00;;
10389;SDS011;5241;47.830;12.972;2024-02-28T03:10:43;16.97;;;10.57;;
10389;SDS011;5241;47.830;12.972;2024-02-28T03:13:09;18.97;;;10.10;;
10389;SDS011;5241;47.830;12.972;2024-02-28T03:15:34;17.00;;;9.43;;
10389;SDS011;5241;47.830;12.972;2024-02-28T03:18:00;15.27;;;10.10;;
10389;SDS011;5241;47.830;12.972;2024-02-28T03:20:26;20.23;;;11.47;;
10389;SDS011;5241;47.830;12.972;2024-02-28T03:22:52;17.77;;;10.83;;
10389;SDS011;5241;47.830;12.972;2024-02-28T03:25:17;22.57;;;12.73;;
10389;SDS011;5241;47.830;12.972;2024-02-28T03:27:43;17.30;;;10.07;;
10389;SDS011;5241;47.830;12.972;2024-02-28T03:30:08;17.10;;;9.97;;
10389;SDS011;5241;47.830;12.972;2024-02-28T03:32:34;16.57;;;10.77;;
10389;SDS011;5241;47.830;12.972;2024-02-28T03:34:59;19.77;;;10.97;;
10389;SDS011;5241;47.830;12.972;2024-02-28T03:37:25;16.00;;;10.23;;
10389;SDS011;5241;47.830;12.972;2024-02-28T03:39:51;17.40;;;10.80;;
10389;SDS011;5241;47.830;12.972;2024-02-28T03:42:16;16.10;;;10.20;;
10389;SDS011;5241;47.830;12.972;2024-02-28T03:44:42;16.43;;;10.83;;
10389;SDS011;5241;47.830;12.972;2024-02-28T03:47:08;19.17;;;10.40;;
10389;SDS011;5241;47.830;12.972;2024-02-28T03:49:34;17.47;;;9.93;;
10389;SDS011;5241;47.830;12.972;2024-02-28T03:51:59;15.90;;;9.13;;
10389;SDS011;5241;47.830;12.972;2024-02-28T03:54:26;14.63;;;8.87;;
10389;SDS011;5241;47.830;12.972;2024-02-28T03:56:51;14.63;;;9.37;;
10389;SDS011;5241;47.830;12.972;2024-02-28T03:59:17;16.60;;;8.90;;
10389;SDS011;5241;47.830;12.972;2024-02-28T04:01:42;15.67;;;8.70;;
10389;SDS011;5241;47.830;12.972;2024-02-28T04:04:08;18.67;;;8.90;;
10389;SDS011;5241;47.830;12.972;2024-02-28T04:06:34;18.40;;;10.23;;
10389;SDS011;5241;47.830;12.972;2024-02-28T04:08:59;16.30;;;9.57;;
10389;SDS011;5241;47.830;12.972;2024-02-28T04:11:25;15.07;;;8.87;;
10389;SDS011;5241;47.830;12.972;2024-02-28T04:13:51;9.50;;;6.83;;
10389;SDS011;5241;47.830;12.972;2024-02-28T04:16:16;16.57;;;8.80;;
10389;SDS011;5241;47.830;12.972;2024-02-28T04:18:42;16.37;;;8.87;;
10389;SDS011;5241;47.830;12.972;2024-02-28T04:21:08;14.77;;;8.07;;
10389;SDS011;5241;47.830;12.972;2024-02-28T04:23:33;12.10;;;7.60;;
10389;SDS011;5241;47.830;12.972;2024-02-28T04:25:59;16.00;;;8.30;;
10389;SDS011;5241;47.830;12.972;2024-02-28T04:28:25;11.60;;;7.97;;
10389;SDS011;5241;47.830;12.972;2024-02-28T04:30:50;13.50;;;7.57;;
10389;SDS011;5241;47.830;12.972;2024-02-28T04:33:16;11.73;;;7.57;;
10389;SDS011;5241;47.830;12.972;2024-02-28T04:35:41;12.47;;;8.10;;
10389;SDS011;5241;47.830;12.972;2024-02-28T04:38:07;12.87;;;7.90;;
10389;SDS011;5241;47.830;12.972;2024-02-28T04:40:33;13.43;;;8.30;;
10389;SDS011;5241;47.830;12.972;2024-02-28T04:42:59;13.43;;;7.60;;
10389;SDS011;5241;47.830;12.972;2024-02-28T04:45:24;13.93;;;8.20;;
10389;SDS011;5241;47.830;12.972;2024-02-28T04:47:50;12.57;;;7.50;;
10389;SDS011;5241;47.830;12.972;2024-02-28T04:50:17;13.50;;;8.13;;
10389;SDS011;5241;47.830;12.972;2024-02-28T04:52:42;14.87;;;8.03;;
10389;SDS011;5241;47.830;12.972;2024-02-28T04:55:08;11.03;;;6.90;;
10389;SDS011;5241;47.830;12.972;2024-02-28T04:57:33;13.40;;;7.63;;
10389;SDS011;5241;47.830;12.972;2024-02-28T04:59:59;13.67;;;7.53;;
10389;SDS011;5241;47.830;12.972;2024-02-28T05:02:25;14.47;;;7.63;;
10389;SDS011;5241;47.830;12.972;2024-02-28T05:04:50;13.97;;;8.47;;
10389;SDS011;5241;47.830;12.972;2024-02-28T05:07:16;13.23;;;7.70;;
10389;SDS011;5241;47.830;12.972;2024-02-28T05:09:42;10.60;;;7.73;;
10389;SDS011;5241;47.830;12.972;2024-02-28T05:12:08;12.20;;;7.20;;
10389;SDS011;5241;47.830;12.972;2024-02-28T05:14:33;11.80;;;8.20;;
10389;SDS011;5241;47.830;12.972;2024-02-28T05:16:59;11.63;;;7.17;;
10389;SDS011;5241;47.830;12.972;2024-02-28T05:19:24;12.03;;;7.63;;
10389;SDS011;5241;47.830;12.972;2024-02-28T05:21:50;12.60;;;7.53;;
10389;SDS011;5241;47.830;12.972;2024-02-28T05:24:15;12.97;;;7.97;;
10389;SDS011;5241;47.830;12.972;2024-02-28T05:26:41;11.43;;;7.80;;
10389;SDS011;5241;47.830;12.972;2024-02-28T05:29:07;13.20;;;8.03;;
10389;SDS011;5241;47.830;12.972;2024-02-28T05:31:33;14.20;;;8.80;;
10389;SDS011;5241;47.830;12.972;2024-02-28T05:33:59;14.60;;;7.97;;
10389;SDS011;5241;47.830;12.972;2024-02-28T05:36:26;13.13;;;8.60;;
10389;SDS011;5241;47.830;12.972;2024-02-28T05:38:53;13.70;;;8.93;;
10389;SDS011;5241;47.830;12.972;2024-02-28T05:41:20;13.07;;;8.67;;
10389;SDS011;5241;47.830;12.972;2024-02-28T05:43:46;16.17;;;9.50;;
10389;SDS011;5241;47.830;12.972;2024-02-28T05:46:12;15.07;;;8.87;;
10389;SDS011;5241;47.830;12.972;2024-02-28T05:48:42;12.87;;;8.97;;
10389;SDS011;5241;47.830;12.972;2024-02-28T05:51:08;12.70;;;7.67;;
10389;SDS011;5241;47.830;12.972;2024-02-28T05:53:34;14.20;;;8.70;;
10389;SDS011;5241;47.830;12.972;2024-02-28T05:56:03;14.53;;;8.73;;
10389;SDS011;5241;47.830;12.972;2024-02-28T05:58:29;13.70;;;8.43;;
10389;SDS011;5241;47.830;12.972;2024-02-28T06:00:55;13.33;;;8.93;;
10389;SDS011;5241;47.830;12.972;2024-02-28T06:03:21;13.00;;;7.70;;
10389;SDS011;5241;47.830;12.972;2024-02-28T06:05:47;13.13;;;8.00;;
10389;SDS011;5241;47.830;12.972;2024-02-28T06:08:12;13.83;;;7.63;;
10389;SDS011;5241;47.830;12.972;2024-02-28T06:10:38;12.03;;;7.43;;
10389;SDS011;5241;47.830;12.972;2024-02-28T06:13:03;11.03;;;7.53;;
10389;SDS011;5241;47.830;12.972;2024-02-28T06:15:29;12.47;;;8.10;;
10389;SDS011;5241;47.830;12.972;2024-02-28T06:17:58;12.73;;;7.60;;
10389;SDS011;5241;47.830;12.972;2024-02-28T06:20:25;19.00;;;9.37;;
10389;SDS011;5241;47.830;12.972;2024-02-28T06:22:51;12.10;;;7.77;;
10389;SDS011;5241;47.830;12.972;2024-02-28T06:25:17;13.50;;;8.20;;
10389;SDS011;5241;47.830;12.972;2024-02-28T06:27:47;12.33;;;7.17;;
10389;SDS011;5241;47.830;12.972;2024-02-28T06:30:13;14.77;;;8.40;;
10389;SDS011;5241;47.830;12.972;2024-02-28T06:32:39;10.60;;;7.83;;
10389;SDS011;5241;47.830;12.972;2024-02-28T06:35:06;9.97;;;7.37;;
10389;SDS011;5241;47.830;12.972;2024-02-28T06:37:32;13.20;;;8.63;;
10389;SDS011;5241;47.830;12.972;2024-02-28T06:39:58;14.20;;;8.07;;
10389;SDS011;5241;47.830;12.972;2024-02-28T06:42:23;11.43;;;7.70;;
10389;SDS011;5241;47.830;12.972;2024-02-28T06:44:49;13.40;;;8.20;;
10389;SDS011;5241;47.830;12.972;2024-02-28T06:47:15;15.43;;;9.93;;
10389;SDS011;5241;47.830;12.972;2024-02-28T06:49:40;19.03;;;10.40;;
10389;SDS011;5241;47.830;12.972;2024-02-28T06:52:06;17.23;;;9.80;;
10389;SDS011;5241;47.830;12.972;2024-02-28T06:54:31;10.77;;;7.83;;
10389;SDS011;5241;47.830;12.972;2024-02-28T06:56:57;12.77;;;8.17;;
10389;SDS011;5241;47.830;12.972;2024-02-28T06:59:23;9.23;;;6.67;;
10389;SDS011;5241;47.830;12.972;2024-02-28T07:01:48;10.73;;;7.67;;
10389;SDS011;5241;47.830;12.972;2024-02-28T07:04:14;11.20;;;6.97;;
10389;SDS011;5241;47.830;12.972;2024-02-28T07:06:39;9.93;;;6.37;;
10389;SDS011;5241;47.830;12.972;2024-02-28T07:09:07;12.23;;;6.73;;
10389;SDS011;5241;47.830;12.972;2024-02-28T07:11:33;11.00;;;7.23;;
10389;SDS011;5241;47.830;12.972;2024-02-28T07:13:59;10.57;;;7.10;;
10389;SDS011;5241;47.830;12.972;2024-02-28T07:16:30;14.03;;;8.43;;
10389;SDS011;5241;47.830;12.972;2024-02-28T07:18:57;11.80;;;7.70;;
10389;SDS011;5241;47.830;12.972;2024-02-28T07:21:23;13.43;;;9.17;;
10389;SDS011;5241;47.830;12.972;2024-02-28T07:23:48;13.43;;;9.00;;
10389;SDS011;5241;47.830;12.972;2024-02-28T07:26:17;14.53;;;9.07;;
10389;SDS011;5241;47.830;12.972;2024-02-28T07:28:42;13.43;;;8.90;;
10389;SDS011;5241;47.830;12.972;2024-02-28T07:31:18;11.70;;;7.87;;
10389;SDS011;5241;47.830;12.972;2024-02-28T07:33:44;11.90;;;7.47;;
10389;SDS011;5241;47.830;12.972;2024-02-28T07:36:10;13.23;;;7.93;;
10389;SDS011;5241;47.830;12.972;2024-02-28T07:38:36;10.63;;;6.47;;
10389;SDS011;5241;47.830;12.972;2024-02-28T07:41:02;10.63;;;7.37;;
10389;SDS011;5241;47.830;12.972;2024-02-28T07:43:27;12.10;;;7.13;;
10389;SDS011;5241;47.830;12.972;2024-02-28T07:45:53;13.17;;;7.03;;
10389;SDS011;5241;47.830;12.972;2024-02-28T07:48:19;10.07;;;6.93;;
10389;SDS011;5241;47.830;12.972;2024-02-28T07:50:45;10.63;;;7.10;;
10389;SDS011;5241;47.830;12.972;2024-02-28T07:53:11;13.33;;;7.50;;
10389;SDS011;5241;47.830;12.972;2024-02-28T07:55:37;11.60;;;7.20;;
10389;SDS011;5241;47.830;12.972;2024-02-28T07:58:03;10.47;;;6.50;;
10389;SDS011;5241;47.830;12.972;2024-02-28T08:00:31;9.87;;;6.80;;
10389;SDS011;5241;47.830;12.972;2024-02-28T08:02:58;11.30;;;6.77;;
10389;SDS011;5241;47.830;12.972;2024-02-28T08:05:23;9.63;;;6.33;;
10389;SDS011;5241;47.830;12.972;2024-02-28T08:07:49;10.97;;;6.10;;
10389;SDS011;5241;47.830;12.972;2024-02-28T08:10:14;10.03;;;6.50;;
10389;SDS011;5241;47.830;12.972;2024-02-28T08:12:40;10.30;;;6.57;;
10389;SDS011;5241;47.830;12.972;2024-02-28T08:15:05;9.80;;;6.77;;
10389;SDS011;5241;47.830;12.972;2024-02-28T08:17:31;9.07;;;6.67;;
10389;SDS011;5241;47.830;12.972;2024-02-28T08:19:57;7.83;;;6.00;;
10389;SDS011;5241;47.830;12.972;2024-02-28T08:22:22;9.17;;;6.47;;
10389;SDS011;5241;47.830;12.972;2024-02-28T08:24:53;11.23;;;7.10;;
10389;SDS011;5241;47.830;12.972;2024-02-28T08:27:18;9.57;;;6.37;;
10389;SDS011;5241;47.830;12.972;2024-02-28T08:29:45;10.17;;;6.47;;
10389;SDS011;5241;47.830;12.972;2024-02-28T08:32:12;16.07;;;7.30;;
10389;SDS011;5241;47.830;12.972;2024-02-28T08:34:38;11.50;;;7.13;;
10389;SDS011;5241;47.830;12.972;2024-02-28T08:37:03;11.53;;;6.43;;
10389;SDS011;5241;47.830;12.972;2024-02-28T08:39:29;10.70;;;6.60;;
10389;SDS011;5241;47.830;12.972;2024-02-28T08:41:54;12.10;;;7.27;;
10389;SDS011;5241;47.830;12.972;2024-02-28T08:44:20;8.97;;;5.77;;
10389;SDS011;5241;47.830;12.972;2024-02-28T08:46:46;10.63;;;5.83;;
10389;SDS011;5241;47.830;12.972;2024-02-28T08:49:13;9.97;;;6.27;;
10389;SDS011;5241;47.830;12.972;2024-02-28T08:51:39;9.60;;;6.00;;
10389;SDS011;5241;47.830;12.972;2024-02-28T08:54:05;8.83;;;6.07;;
10389;SDS011;5241;47.830;12.972;2024-02-28T08:56:31;8.60;;;6.10;;
10389;SDS011;5241;47.830;12.972;2024-02-28T08:58:56;8.50;;;5.97;;
10389;SDS011;5241;47.830;12.972;2024-02-28T09:01:22;9.30;;;6.17;;
10389;SDS011;5241;47.830;12.972;2024-02-28T09:03:47;9.23;;;5.77;;
10389;SDS011;5241;47.830;12.972;2024-02-28T09:06:13;8.90;;;6.30;;
10389;SDS011;5241;47.830;12.972;2024-02-28T09:08:39;9.50;;;6.80;;
10389;SDS011;5241;47.830;12.972;2024-02-28T09:11:05;10.23;;;6.60;;
10389;SDS011;5241;47.830;12.972;2024-02-28T09:13:31;11.50;;;7.53;;
10389;SDS011;5241;47.830;12.972;2024-02-28T09:15:56;12.27;;;7.63;;
10389;SDS011;5241;47.830;12.972;2024-02-28T09:18:22;11.30;;;7.30;;
10389;SDS011;5241;47.830;12.972;2024-02-28T09:20:48;12.77;;;7.53;;
10389;SDS011;5241;47.830;12.972;2024-02-28T09:23:13;11.77;;;7.23;;
10389;SDS011;5241;47.830;12.972;2024-02-28T09:25:39;9.53;;;7.10;;
10389;SDS011;5241;47.830;12.972;2024-02-28T09:28:05;11.63;;;7.80;;
10389;SDS011;5241;47.830;12.972;2024-02-28T09:30:30;10.10;;;6.90;;
10389;SDS011;5241;47.830;12.972;2024-02-28T09:32:56;10.23;;;6.10;;
10389;SDS011;5241;47.830;12.972;2024-02-28T09:35:22;11.43;;;6.77;;
10389;SDS011;5241;47.830;12.972;2024-02-28T09:37:47;10.73;;;6.63;;
10389;SDS011;5241;47.830;12.972;2024-02-28T09:40:13;8.43;;;6.10;;
10389;SDS011;5241;47.830;12.972;2024-02-28T09:42:38;9.33;;;6.37;;
10389;SDS011;5241;47.830;12.972;2024-02-28T09:45:04;10.00;;;5.90;;
10389;SDS011;5241;47.830;12.972;2024-02-28T09:47:34;8.97;;;6.60;;
10389;SDS011;5241;47.830;12.972;2024-02-28T09:50:00;11.40;;;6.63;;
10389;SDS011;5241;47.830;12.972;2024-02-28T09:52:27;11.07;;;7.00;;
10389;SDS011;5241;47.830;12.972;2024-02-28T09:54:53;9.43;;;6.53;;
10389;SDS011;5241;47.830;12.972;2024-02-28T09:57:19;9.03;;;6.20;;
10389;SDS011;5241;47.830;12.972;2024-02-28T09:59:45;9.33;;;6.63;;
10389;SDS011;5241;47.830;12.972;2024-02-28T10:02:12;10.70;;;6.77;;
10389;SDS011;5241;47.830;12.972;2024-02-28T10:04:42;8.97;;;6.77;;
10389;SDS011;5241;47.830;12.972;2024-02-28T10:07:11;11.17;;;6.97;;
10389;SDS011;5241;47.830;12.972;2024-02-28T10:09:40;10.67;;;7.20;;
10389;SDS011;5241;47.830;12.972;2024-02-28T10:12:07;12.57;;;7.20;;
10389;SDS011;5241;47.830;12.972;2024-02-28T10:14:33;9.73;;;7.10;;
10389;SDS011;5241;47.830;12.972;2024-02-28T10:16:58;9.00;;;6.77;;
10389;SDS011;5241;47.830;12.972;2024-02-28T10:19:24;9.87;;;6.63;;
10389;SDS011;5241;47.830;12.972;2024-02-28T10:21:50;9.73;;;6.10;;
10389;SDS011;5241;47.830;12.972;2024-02-28T10:24:16;11.03;;;6.83;;
10389;SDS011;5241;47.830;12.972;2024-02-28T10:26:42;11.20;;;7.27;;
10389;SDS011;5241;47.830;12.972;2024-02-28T10:29:20;10.47;;;6.80;;
10389;SDS011;5241;47.830;12.972;2024-02-28T10:31:46;9.93;;;6.83;;
10389;SDS011;5241;47.830;12.972;2024-02-28T10:34:12;9.77;;;7.27;;
10389;SDS011;5241;47.830;12.972;2024-02-28T10:36:40;12.47;;;8.10;;
10389;SDS011;5241;47.830;12.972;2024-02-28T10:39:08;14.10;;;8.97;;
10389;SDS011;5241;47.830;12.972;2024-02-28T10:41:35;14.90;;;8.50;;
10389;SDS011;5241;47.830;12.972;2024-02-28T10:44:03;15.40;;;8.60;;
10389;SDS011;5241;47.830;12.972;2024-02-28T10:46:28;15.43;;;9.20;;
10389;SDS011;5241;47.830;12.972;2024-02-28T10:48:55;14.83;;;9.17;;
10389;SDS011;5241;47.830;12.972;2024-02-28T10:51:23;14.27;;;8.10;;
10389;SDS011;5241;47.830;12.972;2024-02-28T10:53:53;13.50;;;8.13;;
10389;SDS011;5241;47.830;12.972;2024-02-28T10:56:39;14.03;;;8.53;;
10389;SDS011;5241;47.830;12.972;2024-02-28T10:59:06;15.87;;;10.37;;
10389;SDS011;5241;47.830;12.972;2024-02-28T11:01:36;13.93;;;8.97;;
10389;SDS011;5241;47.830;12.972;2024-02-28T11:04:04;15.50;;;8.70;;
10389;SDS011;5241;47.830;12.972;2024-02-28T11:06:30;17.20;;;9.50;;
10389;SDS011;5241;47.830;12.972;2024-02-28T11:08:58;14.33;;;8.83;;
10389;SDS011;5241;47.830;12.972;2024-02-28T11:11:29;14.33;;;9.30;;
10389;SDS011;5241;47.830;12.972;2024-02-28T11:13:56;13.40;;;8.90;;
10389;SDS011;5241;47.830;12.972;2024-02-28T11:16:25;15.10;;;9.57;;
10389;SDS011;5241;47.830;12.972;2024-02-28T11:18:58;16.60;;;10.00;;
10389;SDS011;5241;47.830;12.972;2024-02-28T11:21:25;14.40;;;9.03;;
10389;SDS011;5241;47.830;12.972;2024-02-28T11:23:51;15.83;;;10.10;;
10389;SDS011;5241;47.830;12.972;2024-02-28T11:26:16;17.23;;;10.03;;
10389;SDS011;5241;47.830;12.972;2024-02-28T11:28:43;17.67;;;10.67;;
10389;SDS011;5241;47.830;12.972;2024-02-28T11:31:08;15.60;;;9.50;;
10389;SDS011;5241;47.830;12.972;2024-02-28T11:33:35;14.50;;;9.23;;
10389;SDS011;5241;47.830;12.972;2024-02-28T11:36:01;17.03;;;10.50;;
10389;SDS011;5241;47.830;12.972;2024-02-28T11:38:28;18.73;;;10.63;;
10389;SDS011;5241;47.830;12.972;2024-02-28T11:40:54;16.70;;;10.13;;
10389;SDS011;5241;47.830;12.972;2024-02-28T11:43:23;15.80;;;9.83;;
10389;SDS011;5241;47.830;12.972;2024-02-28T11:45:48;18.57;;;9.50;;
10389;SDS011;5241;47.830;12.972;2024-02-28T11:48:14;19.00;;;10.03;;
10389;SDS011;5241;47.830;12.972;2024-02-28T11:50:40;17.27;;;10.03;;
10389;SDS011;5241;47.830;12.972;2024-02-28T11:53:06;18.43;;;10.00;;
10389;SDS011;5241;47.830;12.972;2024-02-28T11:55:32;18.80;;;10.67;;
10389;SDS011;5241;47.830;12.972;2024-02-28T11:57:58;17.57;;;10.67;;
10389;SDS011;5241;47.830;12.972;2024-02-28T12:00:24;17.63;;;10.03;;
10389;SDS011;5241;47.830;12.972;2024-02-28T12:02:49;22.03;;;10.83;;
10389;SDS011;5241;47.830;12.972;2024-02-28T12:05:15;21.53;;;11.43;;
10389;SDS011;5241;47.830;12.972;2024-02-28T12:07:41;19.77;;;11.43;;
10389;SDS011;5241;47.830;12.972;2024-02-28T12:10:08;22.70;;;12.10;;
10389;SDS011;5241;47.830;12.972;2024-02-28T12:12:34;19.67;;;11.00;;
10389;SDS011;5241;47.830;12.972;2024-02-28T12:14:59;20.00;;;11.87;;
10389;SDS011;5241;47.830;12.972;2024-02-28T12:17:26;21.63;;;11.17;;
10389;SDS011;5241;47.830;12.972;2024-02-28T12:19:52;19.33;;;11.57;;
10389;SDS011;5241;47.830;12.972;2024-02-28T12:22:18;20.77;;;11.33;;
10389;SDS011;5241;47.830;12.972;2024-02-28T12:24:43;23.37;;;11.60;;
10389;SDS011;5241;47.830;12.972;2024-02-28T12:27:09;21.37;;;11.57;;
10389;SDS011;5241;47.830;12.972;2024-02-28T12:29:35;20.10;;;12.10;;
10389;SDS011;5241;47.830;12.972;2024-02-28T12:32:00;22.50;;;12.43;;
10389;SDS011;5241;47.830;12.972;2024-02-28T12:34:26;20.97;;;11.67;;
10389;SDS011;5241;47.830;12.972;2024-02-28T12:36:52;19.10;;;11.17;;
10389;SDS011;5241;47.830;12.972;2024-02-28T12:39:17;22.57;;;12.17;;
10389;SDS011;5241;47.830;12.972;2024-02-28T12:41:43;19.47;;;11.93;;
10389;SDS011;5241;47.830;12.972;2024-02-28T12:44:08;21.77;;;12.07;;
10389;SDS011;5241;47.830;12.972;2024-02-28T12:46:35;24.83;;;12.07;;
10389;SDS011;5241;47.830;12.972;2024-02-28T12:49:02;21.70;;;11.23;;
10389;SDS011;5241;47.830;12.972;2024-02-28T12:54:03;26.73;;;13.93;;
10389;SDS011;5241;47.830;12.972;2024-02-28T12:56:29;24.43;;;13.30;;
10389;SDS011;5241;47.830;12.972;2024-02-28T12:58:54;21.73;;;12.47;;
10389;SDS011;5241;47.830;12.972;2024-02-28T13:01:20;26.40;;;12.80;;
10389;SDS011;5241;47.830;12.972;2024-02-28T13:03:46;24.20;;;12.90;;
10389;SDS011;5241;47.830;12.972;2024-02-28T13:06:13;24.03;;;13.23;;
10389;SDS011;5241;47.830;12.972;2024-02-28T13:08:40;20.57;;;12.30;;
10389;SDS011;5241;47.830;12.972;2024-02-28T13:11:05;22.03;;;12.67;;
10389;SDS011;5241;47.830;12.972;2024-02-28T13:13:32;24.13;;;12.40;;
10389;SDS011;5241;47.830;12.972;2024-02-28T13:15:58;19.87;;;11.80;;
10389;SDS011;5241;47.830;12.972;2024-02-28T13:18:23;22.77;;;13.13;;
10389;SDS011;5241;47.830;12.972;2024-02-28T13:20:50;24.50;;;13.17;;
10389;SDS011;5241;47.830;12.972;2024-02-28T13:23:16;26.30;;;12.50;;
10389;SDS011;5241;47.830;12.972;2024-02-28T13:25:43;28.27;;;14.83;;
10389;SDS011;5241;47.830;12.972;2024-02-28T13:28:09;25.50;;;15.20;;
10389;SDS011;5241;47.830;12.972;2024-02-28T13:30:34;30.40;;;18.37;;
10389;SDS011;5241;47.830;12.972;2024-02-28T13:33:01;50.80;;;25.90;;
10389;SDS011;5241;47.830;12.972;2024-02-28T13:35:29;28.53;;;15.43;;
10389;SDS011;5241;47.830;12.972;2024-02-28T13:37:55;25.30;;;15.10;;
10389;SDS011;5241;47.830;12.972;2024-02-28T13:40:25;26.97;;;13.97;;
10389;SDS011;5241;47.830;12.972;2024-02-28T13:42:51;22.03;;;12.30;;
10389;SDS011;5241;47.830;12.972;2024-02-28T13:45:16;26.93;;;13.10;;
10389;SDS011;5241;47.830;12.972;2024-02-28T13:47:42;21.87;;;13.03;;
10389;SDS011;5241;47.830;12.972;2024-02-28T13:50:07;26.57;;;12.67;;
10389;SDS011;5241;47.830;12.972;2024-02-28T13:52:34;23.83;;;12.70;;
10389;SDS011;5241;47.830;12.972;2024-02-28T13:55:00;22.07;;;12.63;;
10389;SDS011;5241;47.830;12.972;2024-02-28T13:57:25;28.07;;;14.23;;
10389;SDS011;5241;47.830;12.972;2024-02-28T13:59:51;23.17;;;12.53;;
10389;SDS011;5241;47.830;12.972;2024-02-28T14:02:19;26.20;;;13.50;;
10389;SDS011;5241;47.830;12.972;2024-02-28T14:04:51;23.43;;;12.27;;
10389;SDS011;5241;47.830;12.972;2024-02-28T14:07:19;21.53;;;12.90;;
10389;SDS011;5241;47.830;12.972;2024-02-28T14:09:45;24.63;;;12.83;;
10389;SDS011;5241;47.830;12.972;2024-02-28T14:12:11;24.70;;;13.10;;
10389;SDS011;5241;47.830;12.972;2024-02-28T14:14:37;26.73;;;13.43;;
10389;SDS011;5241;47.830;12.972;2024-02-28T14:17:04;26.50;;;13.63;;
10389;SDS011;5241;47.830;12.972;2024-02-28T14:19:30;26.47;;;13.73;;
10389;SDS011;5241;47.830;12.972;2024-02-28T14:21:55;28.87;;;14.33;;
10389;SDS011;5241;47.830;12.972;2024-02-28T14:24:21;25.80;;;13.90;;
10389;SDS011;5241;47.830;12.972;2024-02-28T14:26:47;23.30;;;12.43;;